Flight Track Log - Related Links

Times and Time Zones

All times are in EDT time to prevent confusion due to time zone crossing. See the UAL1035 flight status page for this flight to view local times or setup timezone preferences in your user account.

Time Position Orientation Groundspeed Altitude Reporting Facility
EDT Latitude Longitude Course Direction KTS MPH feet Rate Location/Type
Tue 07:03:40 PM 29.9547 -95.3372 156° South 178 205 900  Level Houston Center
Tue 07:04:48 PM 29.9094 -95.2775 131° Southeast 245 282 3,300 1,935 Climbing Houston Center
Tue 07:05:13 PM 29.8972 -95.2603 129° Southeast 225 259 3,900 583 Climbing Houston Center
Tue 07:06:00 PM 29.6634 -95.1186 150° Southeast  Level Estimated
Tue 07:06:00 PM 29.8472 -95.1958 132° Southeast 289 333 4,000  Level Houston Center
Tue 07:06:15 PM 29.8442 -95.1922 134° Southeast 278 320 4,100 2,211 Climbing Houston Center
Tue 07:07:00 PM 29.5563 -95.0447 147° Southeast  Level Estimated
Tue 07:07:16 PM 29.7892 -95.1247 133° Southeast 284 327 6,800  Level Houston Center
Tue 07:08:00 PM 29.4492 -94.9709 156° South  Level Estimated
Tue 07:08:18 PM 29.7167 -95.0742 149° Southeast 303 349 9,900  Level Houston Center
Tue 07:09:20 PM 29.6283 -95.0331 158° South 335 386 11,700 1,935 Climbing Houston Center
Tue 07:10:22 PM 29.5325 -94.9881 158° South 361 415 13,900 2,274 Climbing Houston Center
Tue 07:11:24 PM 29.4111 -94.9319 158° South 382 440 16,400 2,323 Climbing Houston Center
Tue 07:12:26 PM 29.3072 -94.8844 158° South 395 455 18,700 1,984 Climbing Houston Center
Tue 07:13:28 PM 29.2047 -94.8239 153° Southeast 416 479 20,500 1,659 Climbing Houston Center
Tue 07:14:29 PM 29.1031 -94.7544 149° Southeast 423 487 22,100 1,659 Climbing Houston Center
Tue 07:15:31 PM 28.9975 -94.6839 150° Southeast 437 503 23,900 1,645 Climbing Houston Center
Tue 07:16:33 PM 28.8889 -94.6092 149° Southeast 451 519 25,500 1,488 Climbing Houston Center
Tue 07:17:36 PM 28.7786 -94.5350 149° Southeast 459 528 27,000 1,500 Climbing Houston Center
Tue 07:18:37 PM 28.6436 -94.4458 150° Southeast 467 537 28,600 1,512 Climbing Houston Center
Tue 07:19:39 PM 28.5286 -94.3675 149° Southeast 478 550 30,100 1,500 Climbing Houston Center
Tue 07:20:41 PM 28.4153 -94.2914 149° Southeast 474 545 31,700 1,452 Climbing Houston Center
Tue 07:21:43 PM 28.3036 -94.2175 150° Southeast 467 537 33,100 1,415 Climbing Houston Center
Tue 07:22:44 PM 28.1922 -94.1428 149° Southeast 465 535 34,600 927 Climbing Houston Center
Tue 07:23:46 PM 28.0903 -94.0553 143° Southeast 459 528 35,000 194 Climbing Houston Center
Tue 07:24:48 PM 27.9742 -93.9411 139° Southeast 460 529 35,000  Level Houston Center
Tue 07:25:50 PM 27.8756 -93.8486 140° Southeast 461 531 35,000  Level Houston Center
Tue 07:26:52 PM 27.7781 -93.7561 140° Southeast 458 527 35,000  Level Houston Center
Tue 07:27:54 PM 27.6808 -93.6631 140° Southeast 457 526 35,000  Level Houston Center
Tue 07:28:55 PM 27.5819 -93.5714 141° Southeast 460 529 35,000  Level Houston Center
Tue 07:29:57 PM 27.4742 -93.4697 140° Southeast 460 529 35,000  Level Houston Center
Tue 07:30:59 PM 27.3867 -93.3869 140° Southeast 459 528 35,000  Level Houston Center
Tue 07:32:01 PM 27.2697 -93.2744 139° Southeast 459 528 35,000  Level Houston Center
Tue 07:34:00 PM 27.0804 -93.1012 139° Southeast  Level FlightAware Approximate
Tue 07:35:06 PM 26.9622 -92.9914 139° Southeast 462 532 35,000  Level Houston Center
Tue 07:36:07 PM 26.8631 -92.8992 140° Southeast 462 532 35,000  Level Houston Center
Tue 07:37:09 PM 26.7642 -92.8094 141° Southeast 460 529 35,000  Level Houston Center
Tue 07:39:00 PM 26.5701 -92.6761 148° Southeast  Level FlightAware Approximate
Tue 07:46:00 PM 25.8245 -92.1942 149° Southeast  Level FlightAware Approximate
Tue 07:47:00 PM 25.7186 -92.1245 149° Southeast  Level FlightAware Approximate
Tue 07:48:00 PM 25.6126 -92.0550 149° Southeast  Level FlightAware Approximate
Tue 07:49:00 PM 25.5066 -91.9856 149° Southeast  Level FlightAware Approximate
Tue 07:50:00 PM 25.4006 -91.9163 149° Southeast  Level FlightAware Approximate
Tue 07:51:00 PM 25.2945 -91.8471 149° Southeast  Level FlightAware Approximate
Tue 07:52:00 PM 25.1884 -91.7780 149° Southeast  Level FlightAware Approximate
Tue 07:53:00 PM 25.0823 -91.7091 150° Southeast  Level FlightAware Approximate
Tue 07:54:00 PM 24.9761 -91.6403 150° Southeast  Level FlightAware Approximate
Tue 07:55:00 PM 24.8699 -91.5716 150° Southeast  Level FlightAware Approximate
Tue 07:56:00 PM 24.7637 -91.5030 150° Southeast  Level FlightAware Approximate
Tue 07:57:00 PM 24.6574 -91.4345 150° Southeast  Level FlightAware Approximate
Tue 07:58:00 PM 24.5511 -91.3662 150° Southeast  Level FlightAware Approximate
Tue 07:59:00 PM 24.4415 -91.3052 156° South  Level FlightAware Approximate
Tue 08:00:00 PM 24.3287 -91.2509 156° South  Level FlightAware Approximate
Tue 08:01:00 PM 24.2159 -91.1968 156° South  Level FlightAware Approximate
Tue 08:02:00 PM 24.1031 -91.1428 156° South  Level FlightAware Approximate
Tue 08:03:00 PM 23.9922 -91.0842 154° Southeast  Level FlightAware Approximate
Tue 08:04:00 PM 23.8817 -91.0247 154° Southeast  Level FlightAware Approximate
Tue 08:05:00 PM 23.7691 -90.9703 156° South  Level FlightAware Approximate
Tue 08:06:00 PM 23.6562 -90.9167 157° South  Level FlightAware Approximate
Tue 08:07:00 PM 23.5433 -90.8632 157° South  Level FlightAware Approximate
Tue 08:08:00 PM 23.4303 -90.8098 157° South  Level FlightAware Approximate
Tue 08:09:00 PM 23.3173 -90.7564 157° South  Level FlightAware Approximate
Tue 08:10:00 PM 23.2043 -90.7032 157° South  Level FlightAware Approximate
Tue 08:11:00 PM 23.0913 -90.6501 157° South  Level FlightAware Approximate
Tue 08:12:00 PM 22.9783 -90.5970 157° South  Level FlightAware Approximate
Tue 08:13:00 PM 22.8652 -90.5441 157° South  Level FlightAware Approximate
Tue 08:14:00 PM 22.7522 -90.4912 157° South  Level FlightAware Approximate
Tue 08:15:00 PM 22.6391 -90.4384 157° South  Level FlightAware Approximate
Tue 08:16:00 PM 22.5260 -90.3857 157° South  Level FlightAware Approximate
Tue 08:17:00 PM 22.4129 -90.3331 157° South  Level FlightAware Approximate
Tue 08:18:00 PM 22.2997 -90.2805 157° South  Level FlightAware Approximate
Tue 08:19:00 PM 22.1866 -90.2281 157° South  Level FlightAware Approximate
Tue 08:20:00 PM 22.0734 -90.1757 157° South  Level FlightAware Approximate
Tue 08:21:00 PM 21.9603 -90.1234 157° South  Level FlightAware Approximate
Tue 08:22:00 PM 21.8470 -90.0713 157° South  Level FlightAware Approximate
Tue 08:23:00 PM 21.7338 -90.0191 157° South  Level FlightAware Approximate
Tue 08:24:00 PM 21.6206 -89.9671 157° South  Level FlightAware Approximate
Tue 08:25:00 PM 21.5075 -89.9148 157° South  Level FlightAware Approximate
Tue 08:26:00 PM 21.3944 -89.8625 157° South  Level FlightAware Approximate
Tue 08:27:00 PM 21.2813 -89.8102 157° South  Level FlightAware Approximate
Tue 08:28:00 PM 21.1682 -89.7581 157° South  Level FlightAware Approximate
Tue 08:29:00 PM 21.0551 -89.7060 157° South  Level FlightAware Approximate
Tue 08:30:00 PM 20.9419 -89.6539 157° South  Level FlightAware Approximate
Tue 08:31:00 PM 20.8272 -89.6060 159° South  Level FlightAware Approximate
Tue 08:32:00 PM 20.7124 -89.5584 159° South  Level FlightAware Approximate
Tue 08:33:00 PM 20.5976 -89.5109 159° South  Level FlightAware Approximate
Tue 08:34:00 PM 20.4828 -89.4635 159° South  Level FlightAware Approximate
Tue 08:35:00 PM 20.3666 -89.4202 161° South  Level FlightAware Approximate
Tue 08:36:00 PM 20.2498 -89.3785 161° South  Level FlightAware Approximate
Tue 08:37:00 PM 20.1343 -89.3333 159° South  Level FlightAware Approximate
Tue 08:38:00 PM 20.0191 -89.2868 159° South  Level FlightAware Approximate
Tue 08:39:00 PM 19.9040 -89.2403 159° South  Level FlightAware Approximate
Tue 08:40:00 PM 19.7889 -89.1940 159° South  Level FlightAware Approximate
Tue 08:41:00 PM 19.6737 -89.1477 159° South  Level FlightAware Approximate
Tue 08:42:00 PM 19.5586 -89.1014 159° South  Level FlightAware Approximate
Tue 08:43:00 PM 19.4434 -89.0552 159° South  Level FlightAware Approximate
Tue 08:44:00 PM 19.3282 -89.0091 159° South  Level FlightAware Approximate
Tue 08:45:00 PM 19.2130 -88.9631 159° South  Level FlightAware Approximate
Tue 08:46:00 PM 19.0978 -88.9171 159° South  Level FlightAware Approximate
Tue 08:47:00 PM 18.9826 -88.8711 159° South  Level FlightAware Approximate
Tue 08:48:00 PM 18.8674 -88.8253 159° South  Level FlightAware Approximate
Tue 08:49:00 PM 18.7521 -88.7795 159° South  Level FlightAware Approximate
Tue 08:50:00 PM 18.6369 -88.7337 159° South  Level FlightAware Approximate
Tue 08:51:00 PM 18.5216 -88.6880 159° South  Level FlightAware Approximate
Tue 08:52:00 PM 18.4064 -88.6424 159° South  Level FlightAware Approximate
Tue 08:53:00 PM 18.2949 -88.5876 154° Southeast  Level FlightAware Approximate
Tue 08:54:00 PM 18.1843 -88.5306 154° Southeast  Level FlightAware Approximate
Tue 08:55:00 PM 18.0737 -88.4737 154° Southeast  Level FlightAware Approximate
Tue 08:56:00 PM 17.9631 -88.4168 154° Southeast  Level FlightAware Approximate
Tue 08:57:00 PM 17.8525 -88.3600 154° Southeast  Level FlightAware Approximate
Tue 08:58:00 PM 17.7418 -88.3033 154° Southeast  Level FlightAware Approximate
Tue 08:59:00 PM 17.6312 -88.2466 154° Southeast  Level FlightAware Approximate
Tue 09:00:00 PM 17.5205 -88.1900 154° Southeast  Level FlightAware Approximate
Tue 09:01:00 PM 17.4098 -88.1335 154° Southeast  Level FlightAware Approximate
Tue 09:02:00 PM 17.2991 -88.0770 154° Southeast  Level FlightAware Approximate
Tue 09:03:00 PM 17.1884 -88.0206 154° Southeast  Level FlightAware Approximate
Tue 09:04:00 PM 17.0777 -87.9643 154° Southeast  Level FlightAware Approximate
Tue 09:05:00 PM 16.9669 -87.9080 154° Southeast  Level FlightAware Approximate
Tue 09:06:00 PM 16.8563 -87.8516 154° Southeast  Level FlightAware Approximate
Tue 09:07:00 PM 16.7486 -87.7968 154° Southeast  Level FlightAware Approximate
Tue 09:08:00 PM 16.6410 -87.7421 154° Southeast  Level FlightAware Approximate
Tue 09:09:00 PM 16.5334 -87.6875 154° Southeast  Level FlightAware Approximate
Tue 09:10:00 PM 16.4258 -87.6329 154° Southeast  Level FlightAware Approximate
Tue 09:11:00 PM 16.3181 -87.5785 154° Southeast  Level FlightAware Approximate
Tue 09:12:00 PM 16.2104 -87.5240 154° Southeast  Level FlightAware Approximate
Tue 09:13:00 PM 16.1027 -87.4696 154° Southeast  Level FlightAware Approximate
Tue 09:14:00 PM 15.9950 -87.4153 154° Southeast  Level FlightAware Approximate
Tue 09:15:00 PM 15.8873 -87.3610 154° Southeast  Level FlightAware Approximate
Tue 09:16:00 PM 15.7796 -87.3068 154° Southeast  Level FlightAware Approximate
Tue 09:17:00 PM 15.6718 -87.2527 154° Southeast  Level FlightAware Approximate
Tue 09:18:00 PM 15.5640 -87.1987 154° Southeast  Level FlightAware Approximate
Tue 09:19:00 PM 15.4562 -87.1448 154° Southeast  Level FlightAware Approximate
Tue 09:20:00 PM 15.3471 -87.0937 156° South  Level FlightAware Approximate
Tue 09:21:00 PM 15.2377 -87.0434 156° South  Level FlightAware Approximate
Tue 09:22:00 PM 15.1283 -86.9931 156° South  Level FlightAware Approximate
Tue 09:23:00 PM 15.0188 -86.9430 156° South  Level FlightAware Approximate
Tue 09:24:00 PM 14.9094 -86.8928 156° South  Level FlightAware Approximate
Tue 09:25:00 PM 14.7999 -86.8428 156° South  Level FlightAware Approximate
Tue 09:26:00 PM 14.6904 -86.7927 156° South  Level FlightAware Approximate
Tue 09:27:00 PM 14.5813 -86.7420 155° Southeast  Level FlightAware Approximate
Tue 09:28:00 PM 14.4724 -86.6905 155° Southeast  Level FlightAware Approximate
Tue 09:29:00 PM 14.3636 -86.6390 155° Southeast  Level FlightAware Approximate
Tue 09:30:00 PM 14.2548 -86.5876 155° Southeast  Level FlightAware Approximate
Tue 09:31:00 PM 14.1459 -86.5363 155° Southeast  Level FlightAware Approximate
Tue 09:32:00 PM 14.0371 -86.4849 155° Southeast  Level FlightAware Approximate
Tue 09:33:00 PM 13.9282 -86.4337 155° Southeast  Level FlightAware Approximate
Tue 09:34:00 PM 13.8193 -86.3825 155° Southeast  Level FlightAware Approximate
Tue 09:35:00 PM 13.7104 -86.3313 155° Southeast  Level FlightAware Approximate
Tue 09:36:00 PM 13.6015 -86.2802 155° Southeast  Level FlightAware Approximate
Tue 09:37:00 PM 13.4926 -86.2291 155° Southeast  Level FlightAware Approximate
Tue 09:38:00 PM 13.3837 -86.1781 156° South  Level FlightAware Approximate
Tue 09:39:00 PM 13.2748 -86.1272 156° South  Level FlightAware Approximate
Tue 09:40:00 PM 13.1658 -86.0762 156° South  Level FlightAware Approximate
Tue 09:41:00 PM 13.0569 -86.0253 156° South  Level FlightAware Approximate
Tue 09:42:00 PM 12.9479 -85.9745 156° South  Level FlightAware Approximate
Tue 09:43:00 PM 12.8390 -85.9237 156° South  Level FlightAware Approximate
Tue 09:44:00 PM 12.7300 -85.8730 156° South  Level FlightAware Approximate
Tue 09:45:00 PM 12.6210 -85.8223 156° South  Level FlightAware Approximate
Tue 09:46:00 PM 12.5120 -85.7716 156° South  Level FlightAware Approximate
Tue 09:47:00 PM 12.4030 -85.7210 156° South  Level FlightAware Approximate
Tue 09:48:00 PM 12.2940 -85.6704 156° South  Level FlightAware Approximate
Tue 09:49:00 PM 12.1847 -85.6204 156° South  Level FlightAware Approximate
Tue 09:50:00 PM 12.0753 -85.5708 156° South  Level FlightAware Approximate
Tue 09:51:00 PM 11.9658 -85.5212 156° South  Level FlightAware Approximate
Tue 09:52:00 PM 11.8564 -85.4717 156° South  Level FlightAware Approximate
Tue 09:53:00 PM 11.7469 -85.4222 156° South  Level FlightAware Approximate
Tue 09:54:00 PM 11.6375 -85.3728 156° South  Level FlightAware Approximate
Tue 09:55:00 PM 11.5282 -85.3230 155° Southeast  Level FlightAware Approximate
Tue 09:56:00 PM 11.4198 -85.2713 155° Southeast  Level FlightAware Approximate
Tue 09:57:00 PM 11.3113 -85.2197 155° Southeast  Level FlightAware Approximate
Tue 09:58:00 PM 11.2028 -85.1681 155° Southeast  Level FlightAware Approximate
Tue 09:59:00 PM 11.0943 -85.1166 155° Southeast  Level FlightAware Approximate
Tue 10:00:00 PM 10.9858 -85.0651 155° Southeast  Level FlightAware Approximate
Tue 10:01:00 PM 10.8773 -85.0136 155° Southeast  Level FlightAware Approximate
Tue 10:02:00 PM 10.7688 -84.9622 155° Southeast  Level FlightAware Approximate
Tue 10:03:00 PM 10.6603 -84.9108 155° Southeast  Level FlightAware Approximate
Tue 10:04:00 PM 10.5518 -84.8595 155° Southeast  Level FlightAware Approximate
Tue 10:05:00 PM 10.4432 -84.8082 155° Southeast  Level FlightAware Approximate
Tue 10:06:00 PM 10.3347 -84.7569 155° Southeast  Level FlightAware Approximate
Tue 10:07:00 PM 10.2261 -84.7056 155° Southeast  Level FlightAware Approximate
Tue 10:08:00 PM 10.1175 -84.6544 155° Southeast  Level FlightAware Approximate
Tue 10:09:00 PM 10.0090 -84.6032 155° Southeast  Level FlightAware Approximate
Tue 10:10:00 PM 9.9004 -84.5521 155° Southeast  Level FlightAware Approximate
Tue 10:11:00 PM 9.7918 -84.5010 155° Southeast  Level FlightAware Approximate
Tue 10:12:00 PM 9.6832 -84.4500 155° Southeast  Level FlightAware Approximate
Tue 10:13:00 PM 9.5749 -84.3984 155° Southeast  Level FlightAware Approximate
Tue 10:14:00 PM 9.4665 -84.3469 155° Southeast  Level FlightAware Approximate
Tue 10:15:00 PM 9.3581 -84.2954 155° Southeast  Level FlightAware Approximate
Tue 10:16:00 PM 9.2497 -84.2439 155° Southeast  Level FlightAware Approximate
Tue 10:17:00 PM 9.1413 -84.1925 155° Southeast  Level FlightAware Approximate
Tue 10:18:00 PM 9.0330 -84.1411 155° Southeast  Level FlightAware Approximate
Tue 10:19:00 PM 8.9245 -84.0897 155° Southeast  Level FlightAware Approximate
Tue 10:20:00 PM 8.8161 -84.0384 155° Southeast  Level FlightAware Approximate
Tue 10:21:00 PM 8.7077 -83.9871 155° Southeast  Level FlightAware Approximate
Tue 10:22:00 PM 8.5993 -83.9358 155° Southeast  Level FlightAware Approximate
Tue 10:23:00 PM 8.4909 -83.8846 155° Southeast  Level FlightAware Approximate
Tue 10:24:00 PM 8.3824 -83.8334 155° Southeast  Level FlightAware Approximate
Tue 10:25:00 PM 8.2740 -83.7822 155° Southeast  Level FlightAware Approximate
Tue 10:26:00 PM 8.1655 -83.7310 155° Southeast  Level FlightAware Approximate
Tue 10:27:00 PM 8.0570 -83.6799 155° Southeast  Level FlightAware Approximate
Tue 10:28:00 PM 7.9486 -83.6288 155° Southeast  Level FlightAware Approximate
Tue 10:29:00 PM 7.8401 -83.5777 155° Southeast  Level FlightAware Approximate
Tue 10:30:00 PM 7.7311 -83.5277 156° South  Level FlightAware Approximate
Tue 10:31:00 PM 7.6220 -83.4781 156° South  Level FlightAware Approximate
Tue 10:32:00 PM 7.5129 -83.4285 156° South  Level FlightAware Approximate
Tue 10:33:00 PM 7.4037 -83.3790 156° South  Level FlightAware Approximate
Tue 10:34:00 PM 7.2946 -83.3294 156° South  Level FlightAware Approximate
Tue 10:35:00 PM 7.1855 -83.2799 156° South  Level FlightAware Approximate
Tue 10:36:00 PM 7.0763 -83.2304 156° South  Level FlightAware Approximate
Tue 10:37:00 PM 6.9672 -83.1809 156° South  Level FlightAware Approximate
Tue 10:38:00 PM 6.8580 -83.1314 156° South  Level FlightAware Approximate
Tue 10:39:00 PM 6.7488 -83.0820 156° South  Level FlightAware Approximate
Tue 10:40:00 PM 6.6397 -83.0326 156° South  Level FlightAware Approximate
Tue 10:41:00 PM 6.5305 -82.9832 156° South  Level FlightAware Approximate
Tue 10:42:00 PM 6.4213 -82.9338 156° South  Level FlightAware Approximate
Tue 10:43:00 PM 6.3185 -82.8729 145° Southeast  Level FlightAware Approximate
Tue 10:44:00 PM 6.2203 -82.8041 145° Southeast  Level FlightAware Approximate
Tue 10:45:00 PM 6.1221 -82.7353 145° Southeast  Level FlightAware Approximate
Tue 10:46:00 PM 6.0245 -82.6670 145° Southeast  Level FlightAware Approximate
Tue 10:47:00 PM 5.9270 -82.5987 145° Southeast  Level FlightAware Approximate
Tue 10:48:00 PM 5.8294 -82.5305 145° Southeast  Level FlightAware Approximate
Tue 10:49:00 PM 5.7318 -82.4622 145° Southeast  Level FlightAware Approximate
Tue 10:50:00 PM 5.6340 -82.3944 146° Southeast  Level FlightAware Approximate
Tue 10:51:00 PM 5.5356 -82.3274 146° Southeast  Level FlightAware Approximate
Tue 10:52:00 PM 5.4372 -82.2605 146° Southeast  Level FlightAware Approximate
Tue 10:53:00 PM 5.3387 -82.1936 146° Southeast  Level FlightAware Approximate
Tue 10:54:00 PM 5.2403 -82.1266 146° Southeast  Level FlightAware Approximate
Tue 10:55:00 PM 5.1419 -82.0598 146° Southeast  Level FlightAware Approximate
Tue 10:56:00 PM 5.0434 -81.9929 146° Southeast  Level FlightAware Approximate
Tue 10:57:00 PM 4.9450 -81.9260 146° Southeast  Level FlightAware Approximate
Tue 10:58:00 PM 4.8465 -81.8592 146° Southeast  Level FlightAware Approximate
Tue 10:59:00 PM 4.7480 -81.7924 146° Southeast  Level FlightAware Approximate
Tue 11:00:00 PM 4.6495 -81.7256 146° Southeast  Level FlightAware Approximate
Tue 11:01:00 PM 4.5511 -81.6588 146° Southeast  Level FlightAware Approximate
Tue 11:02:00 PM 4.4526 -81.5921 146° Southeast  Level FlightAware Approximate
Tue 11:03:00 PM 4.3541 -81.5253 146° Southeast  Level FlightAware Approximate
Tue 11:04:00 PM 4.2562 -81.4577 145° Southeast  Level FlightAware Approximate
Tue 11:05:00 PM 4.1588 -81.3894 145° Southeast  Level FlightAware Approximate
Tue 11:06:00 PM 4.0613 -81.3212 145° Southeast  Level FlightAware Approximate
Tue 11:07:00 PM 3.9639 -81.2529 145° Southeast  Level FlightAware Approximate
Tue 11:08:00 PM 3.8664 -81.1847 145° Southeast  Level FlightAware Approximate
Tue 11:09:00 PM 3.7690 -81.1165 145° Southeast  Level FlightAware Approximate
Tue 11:10:00 PM 3.6715 -81.0484 145° Southeast  Level FlightAware Approximate
Tue 11:11:00 PM 3.5736 -80.9808 146° Southeast  Level FlightAware Approximate
Tue 11:12:00 PM 3.4756 -80.9135 146° Southeast  Level FlightAware Approximate
Tue 11:13:00 PM 3.3776 -80.8461 146° Southeast  Level FlightAware Approximate
Tue 11:14:00 PM 3.2796 -80.7788 146° Southeast  Level FlightAware Approximate
Tue 11:15:00 PM 3.1815 -80.7114 146° Southeast  Level FlightAware Approximate
Tue 11:16:00 PM 3.0835 -80.6441 146° Southeast  Level FlightAware Approximate
Tue 11:17:00 PM 2.9854 -80.5768 146° Southeast  Level FlightAware Approximate
Tue 11:18:00 PM 2.8874 -80.5096 146° Southeast  Level FlightAware Approximate
Tue 11:19:00 PM 2.7894 -80.4423 146° Southeast  Level FlightAware Approximate
Tue 11:20:00 PM 2.6913 -80.3750 146° Southeast  Level FlightAware Approximate
Tue 11:21:00 PM 2.5932 -80.3078 146° Southeast  Level FlightAware Approximate
Tue 11:22:00 PM 2.4952 -80.2405 146° Southeast  Level FlightAware Approximate
Tue 11:23:00 PM 2.3971 -80.1733 146° Southeast  Level FlightAware Approximate
Tue 11:24:00 PM 2.2991 -80.1061 146° Southeast  Level FlightAware Approximate
Tue 11:25:00 PM 2.2010 -80.0389 146° Southeast  Level FlightAware Approximate
Tue 11:26:00 PM 2.1029 -79.9716 146° Southeast  Level FlightAware Approximate
Tue 11:27:00 PM 2.0048 -79.9044 146° Southeast  Level FlightAware Approximate
Tue 11:28:00 PM 1.9067 -79.8373 146° Southeast  Level FlightAware Approximate
Tue 11:29:00 PM 1.8087 -79.7701 146° Southeast  Level FlightAware Approximate
Tue 11:30:00 PM 1.7106 -79.7029 146° Southeast  Level FlightAware Approximate
Tue 11:31:00 PM 1.6125 -79.6357 146° Southeast  Level FlightAware Approximate
Tue 11:32:00 PM 1.5144 -79.5686 146° Southeast  Level FlightAware Approximate
Tue 11:33:00 PM 1.4163 -79.5015 146° Southeast  Level FlightAware Approximate
Tue 11:34:00 PM 1.3182 -79.4344 146° Southeast  Level FlightAware Approximate
Tue 11:35:00 PM 1.2199 -79.3688 146° Southeast  Level FlightAware Approximate
Tue 11:36:00 PM 1.1210 -79.3029 146° Southeast  Level FlightAware Approximate
Tue 11:37:00 PM 1.0226 -79.2362 145° Southeast  Level FlightAware Approximate
Tue 11:38:00 PM 0.9249 -79.1685 145° Southeast  Level FlightAware Approximate
Tue 11:39:00 PM 0.8267 -79.1015 147° Southeast  Level FlightAware Approximate
Tue 11:40:00 PM 0.7272 -79.0365 147° Southeast  Level FlightAware Approximate
Tue 11:41:00 PM 0.6276 -78.9716 147° Southeast  Level FlightAware Approximate
Tue 11:42:00 PM 0.5280 -78.9067 147° Southeast  Level FlightAware Approximate
Tue 11:43:00 PM 0.4302 -78.8393 143° Southeast  Level FlightAware Approximate
Tue 11:44:00 PM 0.3351 -78.7680 143° Southeast  Level FlightAware Approximate
Tue 11:45:00 PM 0.2349 -78.7040 148° Southeast  Level FlightAware Approximate
Tue 11:46:00 PM 0.1354 -78.6391 143° Southeast  Level FlightAware Approximate
Tue 11:47:00 PM 0.0403 -78.5677 143° Southeast  Level FlightAware Approximate
Tue 11:48:00 PM -0.0416 -78.4834 117° Southeast  Level FlightAware Approximate
Tue 11:49:00 PM -0.1411 -78.4882 112° Southeast  Level Estimated
Tue 11:50:00 PM -0.1411 -78.4882 112° Southeast  Level Estimated
Tue 11:51:00 PM -0.1411 -78.4882 112° Southeast  Level Estimated
Tue 11:52:00 PM -0.1411 -78.4882 112° Southeast  Level Estimated
Tue 11:53:00 PM -0.1411 -78.4882 112° Southeast  Level Estimated
Tue 11:54:00 PM -0.1411 -78.4882 112° Southeast  Level Estimated
Tue 11:55:00 PM -0.1411 -78.4882 112° Southeast  Level Estimated
Tue 11:56:00 PM -0.1411 -78.4882 112° Southeast  Level Estimated
Tue 11:57:00 PM -0.1411 -78.4882 112° Southeast  Level Estimated
Tue 11:58:00 PM -0.1411 -78.4882 112° Southeast  Level Estimated

Login

Don't have an account? Register now (free) for customized features, flight alerts, and more!